sensor_id;sensor_type;location;lat;lon;timestamp;P1;durP1;ratioP1;P2;durP2;ratioP2
36221;SDS011;22266;52.340;4.962;2024-03-17T00:02:22;9.00;;;6.75;;
36221;SDS011;22266;52.340;4.962;2024-03-17T00:04:48;6.75;;;6.75;;
36221;SDS011;22266;52.340;4.962;2024-03-17T00:07:14;6.25;;;6.00;;
36221;SDS011;22266;52.340;4.962;2024-03-17T00:09:40;3.50;;;3.50;;
36221;SDS011;22266;52.340;4.962;2024-03-17T00:12:06;4.50;;;3.50;;
36221;SDS011;22266;52.340;4.962;2024-03-17T00:14:33;6.00;;;6.00;;
36221;SDS011;22266;52.340;4.962;2024-03-17T00:17:00;5.00;;;4.50;;
36221;SDS011;22266;52.340;4.962;2024-03-17T00:19:26;4.50;;;2.75;;
36221;SDS011;22266;52.340;4.962;2024-03-17T00:21:52;2.00;;;2.00;;
36221;SDS011;22266;52.340;4.962;2024-03-17T00:24:18;5.00;;;4.50;;
36221;SDS011;22266;52.340;4.962;2024-03-17T00:26:48;5.25;;;3.50;;
36221;SDS011;22266;52.340;4.962;2024-03-17T00:29:16;3.00;;;2.75;;
36221;SDS011;22266;52.340;4.962;2024-03-17T00:31:42;3.00;;;2.00;;
36221;SDS011;22266;52.340;4.962;2024-03-17T00:34:08;2.00;;;2.00;;
36221;SDS011;22266;52.340;4.962;2024-03-17T00:36:34;4.75;;;3.25;;
36221;SDS011;22266;52.340;4.962;2024-03-17T00:39:00;2.00;;;2.00;;
36221;SDS011;22266;52.340;4.962;2024-03-17T00:41:25;4.00;;;4.00;;
36221;SDS011;22266;52.340;4.962;2024-03-17T00:43:51;2.25;;;2.25;;
36221;SDS011;22266;52.340;4.962;2024-03-17T00:46:18;3.00;;;2.00;;
36221;SDS011;22266;52.340;4.962;2024-03-17T00:48:49;1.50;;;1.50;;
36221;SDS011;22266;52.340;4.962;2024-03-17T00:51:15;2.00;;;2.00;;
36221;SDS011;22266;52.340;4.962;2024-03-17T00:53:41;3.00;;;2.00;;
36221;SDS011;22266;52.340;4.962;2024-03-17T00:56:07;5.00;;;3.00;;
36221;SDS011;22266;52.340;4.962;2024-03-17T00:58:33;2.75;;;2.75;;
36221;SDS011;22266;52.340;4.962;2024-03-17T01:00:59;5.00;;;5.00;;
36221;SDS011;22266;52.340;4.962;2024-03-17T01:03:24;2.25;;;2.25;;
36221;SDS011;22266;52.340;4.962;2024-03-17T01:05:50;7.00;;;3.25;;
36221;SDS011;22266;52.340;4.962;2024-03-17T01:08:18;3.00;;;3.00;;
36221;SDS011;22266;52.340;4.962;2024-03-17T01:10:44;6.00;;;3.00;;
36221;SDS011;22266;52.340;4.962;2024-03-17T01:13:11;3.25;;;3.25;;
36221;SDS011;22266;52.340;4.962;2024-03-17T01:15:38;1.00;;;1.00;;
36221;SDS011;22266;52.340;4.962;2024-03-17T01:18:04;5.00;;;5.00;;
36221;SDS011;22266;52.340;4.962;2024-03-17T01:20:31;6.00;;;5.00;;
36221;SDS011;22266;52.340;4.962;2024-03-17T01:22:58;7.50;;;5.00;;
36221;SDS011;22266;52.340;4.962;2024-03-17T01:25:24;5.75;;;3.50;;
36221;SDS011;22266;52.340;4.962;2024-03-17T01:27:53;5.50;;;5.00;;
36221;SDS011;22266;52.340;4.962;2024-03-17T01:30:18;5.25;;;5.25;;
36221;SDS011;22266;52.340;4.962;2024-03-17T01:32:45;4.50;;;4.50;;
36221;SDS011;22266;52.340;4.962;2024-03-17T01:35:11;3.50;;;2.25;;
36221;SDS011;22266;52.340;4.962;2024-03-17T01:37:37;5.25;;;3.50;;
36221;SDS011;22266;52.340;4.962;2024-03-17T01:40:06;3.50;;;3.00;;
36221;SDS011;22266;52.340;4.962;2024-03-17T01:42:39;6.00;;;5.50;;
36221;SDS011;22266;52.340;4.962;2024-03-17T01:45:51;6.25;;;5.00;;
36221;SDS011;22266;52.340;4.962;2024-03-17T01:47:55;6.00;;;4.00;;
36221;SDS011;22266;52.340;4.962;2024-03-17T01:50:29;5.00;;;5.00;;
36221;SDS011;22266;52.340;4.962;2024-03-17T01:53:00;4.50;;;4.50;;
36221;SDS011;22266;52.340;4.962;2024-03-17T01:55:35;5.00;;;3.00;;
36221;SDS011;22266;52.340;4.962;2024-03-17T01:58:03;5.00;;;3.00;;
36221;SDS011;22266;52.340;4.962;2024-03-17T02:00:32;3.25;;;3.25;;
36221;SDS011;22266;52.340;4.962;2024-03-17T02:02:59;6.00;;;5.00;;
36221;SDS011;22266;52.340;4.962;2024-03-17T02:05:26;5.75;;;5.00;;
36221;SDS011;22266;52.340;4.962;2024-03-17T02:07:52;6.00;;;5.75;;
36221;SDS011;22266;52.340;4.962;2024-03-17T02:10:18;5.00;;;5.00;;
36221;SDS011;22266;52.340;4.962;2024-03-17T02:12:44;5.00;;;5.00;;
36221;SDS011;22266;52.340;4.962;2024-03-17T02:15:09;5.25;;;5.00;;
36221;SDS011;22266;52.340;4.962;2024-03-17T02:17:35;5.00;;;5.00;;
36221;SDS011;22266;52.340;4.962;2024-03-17T02:20:01;3.00;;;3.00;;
36221;SDS011;22266;52.340;4.962;2024-03-17T02:22:27;6.25;;;6.25;;
36221;SDS011;22266;52.340;4.962;2024-03-17T02:24:55;7.50;;;5.25;;
36221;SDS011;22266;52.340;4.962;2024-03-17T02:27:21;6.25;;;5.25;;
36221;SDS011;22266;52.340;4.962;2024-03-17T02:29:47;10.00;;;6.00;;
36221;SDS011;22266;52.340;4.962;2024-03-17T02:32:12;6.00;;;6.00;;
36221;SDS011;22266;52.340;4.962;2024-03-17T02:34:38;9.25;;;7.50;;
36221;SDS011;22266;52.340;4.962;2024-03-17T02:37:04;7.50;;;6.00;;
36221;SDS011;22266;52.340;4.962;2024-03-17T02:39:32;7.50;;;6.25;;
36221;SDS011;22266;52.340;4.962;2024-03-17T02:42:06;11.00;;;9.00;;
36221;SDS011;22266;52.340;4.962;2024-03-17T02:44:34;13.75;;;7.75;;
36221;SDS011;22266;52.340;4.962;2024-03-17T02:47:01;7.75;;;7.00;;
36221;SDS011;22266;52.340;4.962;2024-03-17T02:49:29;7.25;;;6.00;;
36221;SDS011;22266;52.340;4.962;2024-03-17T02:52:02;10.00;;;8.50;;
36221;SDS011;22266;52.340;4.962;2024-03-17T02:54:30;9.50;;;7.00;;
36221;SDS011;22266;52.340;4.962;2024-03-17T02:56:56;10.00;;;9.00;;
36221;SDS011;22266;52.340;4.962;2024-03-17T02:59:21;10.00;;;10.00;;
36221;SDS011;22266;52.340;4.962;2024-03-17T03:01:47;15.25;;;9.25;;
36221;SDS011;22266;52.340;4.962;2024-03-17T03:04:12;11.25;;;9.75;;
36221;SDS011;22266;52.340;4.962;2024-03-17T03:06:38;13.00;;;12.00;;
36221;SDS011;22266;52.340;4.962;2024-03-17T03:09:04;11.25;;;10.00;;
36221;SDS011;22266;52.340;4.962;2024-03-17T03:11:40;10.50;;;10.00;;
36221;SDS011;22266;52.340;4.962;2024-03-17T03:14:06;9.00;;;9.00;;
36221;SDS011;22266;52.340;4.962;2024-03-17T03:16:32;13.00;;;11.50;;
36221;SDS011;22266;52.340;4.962;2024-03-17T03:18:59;14.75;;;11.50;;
36221;SDS011;22266;52.340;4.962;2024-03-17T03:21:24;15.50;;;14.25;;
36221;SDS011;22266;52.340;4.962;2024-03-17T03:23:51;10.75;;;10.75;;
36221;SDS011;22266;52.340;4.962;2024-03-17T03:26:17;10.50;;;10.50;;
36221;SDS011;22266;52.340;4.962;2024-03-17T03:28:43;13.25;;;11.75;;
36221;SDS011;22266;52.340;4.962;2024-03-17T03:31:12;14.00;;;11.00;;
36221;SDS011;22266;52.340;4.962;2024-03-17T03:33:39;9.00;;;9.00;;
36221;SDS011;22266;52.340;4.962;2024-03-17T03:36:10;11.50;;;10.00;;
36221;SDS011;22266;52.340;4.962;2024-03-17T03:38:36;11.75;;;11.75;;
36221;SDS011;22266;52.340;4.962;2024-03-17T03:41:05;12.25;;;10.50;;
36221;SDS011;22266;52.340;4.962;2024-03-17T03:43:34;10.75;;;10.75;;
36221;SDS011;22266;52.340;4.962;2024-03-17T03:46:01;12.50;;;12.00;;
36221;SDS011;22266;52.340;4.962;2024-03-17T03:48:28;13.00;;;11.00;;
36221;SDS011;22266;52.340;4.962;2024-03-17T03:50:54;11.50;;;10.75;;
36221;SDS011;22266;52.340;4.962;2024-03-17T03:53:20;10.75;;;10.75;;
36221;SDS011;22266;52.340;4.962;2024-03-17T03:55:46;9.75;;;7.50;;
36221;SDS011;22266;52.340;4.962;2024-03-17T03:58:12;14.00;;;13.00;;
36221;SDS011;22266;52.340;4.962;2024-03-17T04:00:38;13.00;;;10.00;;
36221;SDS011;22266;52.340;4.962;2024-03-17T04:03:04;17.25;;;14.75;;
36221;SDS011;22266;52.340;4.962;2024-03-17T04:05:30;17.50;;;14.00;;
36221;SDS011;22266;52.340;4.962;2024-03-17T04:07:56;13.75;;;13.50;;
36221;SDS011;22266;52.340;4.962;2024-03-17T04:10:22;17.25;;;14.50;;
36221;SDS011;22266;52.340;4.962;2024-03-17T04:12:49;17.75;;;17.50;;
36221;SDS011;22266;52.340;4.962;2024-03-17T04:15:15;14.00;;;13.00;;
36221;SDS011;22266;52.340;4.962;2024-03-17T04:17:40;16.25;;;13.75;;
36221;SDS011;22266;52.340;4.962;2024-03-17T04:20:07;16.50;;;16.00;;
36221;SDS011;22266;52.340;4.962;2024-03-17T04:22:34;14.75;;;14.75;;
36221;SDS011;22266;52.340;4.962;2024-03-17T04:25:00;15.25;;;13.00;;
36221;SDS011;22266;52.340;4.962;2024-03-17T04:27:26;16.75;;;14.25;;
36221;SDS011;22266;52.340;4.962;2024-03-17T04:29:52;15.00;;;14.00;;
36221;SDS011;22266;52.340;4.962;2024-03-17T04:32:20;13.75;;;13.00;;
36221;SDS011;22266;52.340;4.962;2024-03-17T04:34:46;13.00;;;13.00;;
36221;SDS011;22266;52.340;4.962;2024-03-17T04:37:12;14.50;;;14.50;;
36221;SDS011;22266;52.340;4.962;2024-03-17T04:39:39;15.25;;;15.25;;
36221;SDS011;22266;52.340;4.962;2024-03-17T04:42:08;11.00;;;10.25;;
36221;SDS011;22266;52.340;4.962;2024-03-17T04:44:37;14.50;;;14.00;;
36221;SDS011;22266;52.340;4.962;2024-03-17T04:47:03;13.00;;;13.00;;
36221;SDS011;22266;52.340;4.962;2024-03-17T04:49:43;14.00;;;14.00;;
36221;SDS011;22266;52.340;4.962;2024-03-17T04:52:09;13.50;;;13.50;;
36221;SDS011;22266;52.340;4.962;2024-03-17T04:54:36;13.50;;;13.50;;
36221;SDS011;22266;52.340;4.962;2024-03-17T04:57:02;16.00;;;14.50;;
36221;SDS011;22266;52.340;4.962;2024-03-17T04:59:28;12.25;;;10.75;;
36221;SDS011;22266;52.340;4.962;2024-03-17T05:01:54;14.75;;;14.25;;
36221;SDS011;22266;52.340;4.962;2024-03-17T05:04:19;13.00;;;13.00;;
36221;SDS011;22266;52.340;4.962;2024-03-17T05:06:45;14.50;;;14.00;;
36221;SDS011;22266;52.340;4.962;2024-03-17T05:09:20;14.25;;;14.00;;
36221;SDS011;22266;52.340;4.962;2024-03-17T05:11:46;16.50;;;15.75;;
36221;SDS011;22266;52.340;4.962;2024-03-17T05:14:15;16.75;;;14.00;;
36221;SDS011;22266;52.340;4.962;2024-03-17T05:16:40;15.00;;;14.75;;
36221;SDS011;22266;52.340;4.962;2024-03-17T05:19:06;16.25;;;15.50;;
36221;SDS011;22266;52.340;4.962;2024-03-17T05:21:34;17.00;;;13.00;;
36221;SDS011;22266;52.340;4.962;2024-03-17T05:24:03;13.25;;;12.75;;
36221;SDS011;22266;52.340;4.962;2024-03-17T05:26:29;15.75;;;13.50;;
36221;SDS011;22266;52.340;4.962;2024-03-17T05:28:56;14.75;;;14.75;;
36221;SDS011;22266;52.340;4.962;2024-03-17T05:31:22;16.00;;;14.75;;
36221;SDS011;22266;52.340;4.962;2024-03-17T05:33:48;13.00;;;11.50;;
36221;SDS011;22266;52.340;4.962;2024-03-17T05:36:14;17.50;;;15.00;;
36221;SDS011;22266;52.340;4.962;2024-03-17T05:38:40;14.00;;;14.00;;
36221;SDS011;22266;52.340;4.962;2024-03-17T05:41:06;12.00;;;12.00;;
36221;SDS011;22266;52.340;4.962;2024-03-17T05:43:34;16.50;;;14.00;;
36221;SDS011;22266;52.340;4.962;2024-03-17T05:46:02;14.25;;;13.25;;
36221;SDS011;22266;52.340;4.962;2024-03-17T05:48:31;14.25;;;14.25;;
36221;SDS011;22266;52.340;4.962;2024-03-17T05:50:57;19.00;;;19.00;;
36221;SDS011;22266;52.340;4.962;2024-03-17T05:53:25;16.75;;;13.00;;
36221;SDS011;22266;52.340;4.962;2024-03-17T05:55:51;14.25;;;14.25;;
36221;SDS011;22266;52.340;4.962;2024-03-17T05:58:17;15.25;;;14.00;;
36221;SDS011;22266;52.340;4.962;2024-03-17T06:00:43;18.25;;;17.75;;
36221;SDS011;22266;52.340;4.962;2024-03-17T06:03:09;16.00;;;14.75;;
36221;SDS011;22266;52.340;4.962;2024-03-17T06:05:39;18.50;;;17.00;;
36221;SDS011;22266;52.340;4.962;2024-03-17T06:08:09;17.00;;;17.00;;
36221;SDS011;22266;52.340;4.962;2024-03-17T06:10:36;14.00;;;11.25;;
36221;SDS011;22266;52.340;4.962;2024-03-17T06:13:04;18.00;;;15.75;;
36221;SDS011;22266;52.340;4.962;2024-03-17T06:15:30;18.25;;;15.50;;
36221;SDS011;22266;52.340;4.962;2024-03-17T06:17:56;15.00;;;12.75;;
36221;SDS011;22266;52.340;4.962;2024-03-17T06:20:22;13.50;;;13.00;;
36221;SDS011;22266;52.340;4.962;2024-03-17T06:22:52;15.00;;;14.25;;
36221;SDS011;22266;52.340;4.962;2024-03-17T06:25:18;18.75;;;14.50;;
36221;SDS011;22266;52.340;4.962;2024-03-17T06:27:44;18.00;;;15.00;;
36221;SDS011;22266;52.340;4.962;2024-03-17T06:30:11;14.50;;;12.50;;
36221;SDS011;22266;52.340;4.962;2024-03-17T06:32:40;17.50;;;17.50;;
36221;SDS011;22266;52.340;4.962;2024-03-17T06:35:14;14.00;;;14.00;;
36221;SDS011;22266;52.340;4.962;2024-03-17T06:37:44;16.50;;;15.50;;
36221;SDS011;22266;52.340;4.962;2024-03-17T06:40:14;15.50;;;14.00;;
36221;SDS011;22266;52.340;4.962;2024-03-17T06:42:40;12.50;;;11.50;;
36221;SDS011;22266;52.340;4.962;2024-03-17T06:45:07;18.75;;;18.00;;
36221;SDS011;22266;52.340;4.962;2024-03-17T06:47:34;16.50;;;14.50;;
36221;SDS011;22266;52.340;4.962;2024-03-17T06:50:03;12.25;;;11.25;;
36221;SDS011;22266;52.340;4.962;2024-03-17T06:52:29;16.75;;;14.75;;
36221;SDS011;22266;52.340;4.962;2024-03-17T06:54:56;15.00;;;14.75;;
36221;SDS011;22266;52.340;4.962;2024-03-17T06:57:23;15.50;;;15.50;;
36221;SDS011;22266;52.340;4.962;2024-03-17T06:59:49;20.25;;;16.75;;
36221;SDS011;22266;52.340;4.962;2024-03-17T07:02:16;21.25;;;19.25;;
36221;SDS011;22266;52.340;4.962;2024-03-17T07:04:43;23.00;;;15.50;;
36221;SDS011;22266;52.340;4.962;2024-03-17T07:07:10;18.50;;;14.00;;
36221;SDS011;22266;52.340;4.962;2024-03-17T07:09:37;14.00;;;14.00;;
36221;SDS011;22266;52.340;4.962;2024-03-17T07:12:04;14.75;;;14.75;;
36221;SDS011;22266;52.340;4.962;2024-03-17T07:14:30;15.25;;;15.25;;
36221;SDS011;22266;52.340;4.962;2024-03-17T07:16:57;13.75;;;13.75;;
36221;SDS011;22266;52.340;4.962;2024-03-17T07:19:22;18.00;;;18.00;;
36221;SDS011;22266;52.340;4.962;2024-03-17T07:21:48;16.00;;;15.00;;
36221;SDS011;22266;52.340;4.962;2024-03-17T07:24:13;20.00;;;14.75;;
36221;SDS011;22266;52.340;4.962;2024-03-17T07:26:39;18.00;;;14.50;;
36221;SDS011;22266;52.340;4.962;2024-03-17T07:29:05;17.75;;;15.25;;
36221;SDS011;22266;52.340;4.962;2024-03-17T07:31:31;22.75;;;18.50;;
36221;SDS011;22266;52.340;4.962;2024-03-17T07:33:57;23.00;;;22.25;;
36221;SDS011;22266;52.340;4.962;2024-03-17T07:36:23;18.50;;;17.50;;
36221;SDS011;22266;52.340;4.962;2024-03-17T07:38:48;18.25;;;18.25;;
36221;SDS011;22266;52.340;4.962;2024-03-17T07:41:14;18.50;;;16.00;;
36221;SDS011;22266;52.340;4.962;2024-03-17T07:43:40;19.00;;;18.25;;
36221;SDS011;22266;52.340;4.962;2024-03-17T07:46:06;15.75;;;15.00;;
36221;SDS011;22266;52.340;4.962;2024-03-17T07:48:34;24.25;;;23.00;;
36221;SDS011;22266;52.340;4.962;2024-03-17T07:51:03;18.25;;;15.00;;
36221;SDS011;22266;52.340;4.962;2024-03-17T07:53:34;14.25;;;14.25;;
36221;SDS011;22266;52.340;4.962;2024-03-17T07:56:04;20.75;;;16.25;;
36221;SDS011;22266;52.340;4.962;2024-03-17T07:58:31;20.00;;;17.00;;
36221;SDS011;22266;52.340;4.962;2024-03-17T08:01:01;21.25;;;14.00;;
36221;SDS011;22266;52.340;4.962;2024-03-17T08:03:29;15.25;;;14.75;;
36221;SDS011;22266;52.340;4.962;2024-03-17T08:05:56;17.00;;;14.00;;
36221;SDS011;22266;52.340;4.962;2024-03-17T08:08:26;19.25;;;18.25;;
36221;SDS011;22266;52.340;4.962;2024-03-17T08:10:52;21.50;;;19.00;;
36221;SDS011;22266;52.340;4.962;2024-03-17T08:13:18;24.00;;;18.75;;
36221;SDS011;22266;52.340;4.962;2024-03-17T08:15:45;19.00;;;15.50;;
36221;SDS011;22266;52.340;4.962;2024-03-17T08:18:14;18.25;;;14.25;;
36221;SDS011;22266;52.340;4.962;2024-03-17T08:20:41;16.00;;;15.50;;
36221;SDS011;22266;52.340;4.962;2024-03-17T08:23:09;14.00;;;14.00;;
36221;SDS011;22266;52.340;4.962;2024-03-17T08:25:36;19.00;;;16.50;;
36221;SDS011;22266;52.340;4.962;2024-03-17T08:28:02;20.25;;;18.50;;
36221;SDS011;22266;52.340;4.962;2024-03-17T08:30:28;14.00;;;12.25;;
36221;SDS011;22266;52.340;4.962;2024-03-17T08:32:56;16.75;;;15.25;;
36221;SDS011;22266;52.340;4.962;2024-03-17T08:35:22;19.00;;;15.75;;
36221;SDS011;22266;52.340;4.962;2024-03-17T08:37:47;19.00;;;16.50;;
36221;SDS011;22266;52.340;4.962;2024-03-17T08:40:13;24.75;;;21.25;;
36221;SDS011;22266;52.340;4.962;2024-03-17T08:42:39;18.00;;;15.75;;
36221;SDS011;22266;52.340;4.962;2024-03-17T08:45:06;23.00;;;19.75;;
36221;SDS011;22266;52.340;4.962;2024-03-17T08:47:32;23.25;;;19.25;;
36221;SDS011;22266;52.340;4.962;2024-03-17T08:49:57;19.50;;;19.00;;
36221;SDS011;22266;52.340;4.962;2024-03-17T08:52:24;23.25;;;21.00;;
36221;SDS011;22266;52.340;4.962;2024-03-17T08:54:49;20.00;;;18.25;;
36221;SDS011;22266;52.340;4.962;2024-03-17T08:57:18;21.25;;;21.25;;
36221;SDS011;22266;52.340;4.962;2024-03-17T08:59:47;24.50;;;22.75;;
36221;SDS011;22266;52.340;4.962;2024-03-17T09:02:13;21.75;;;19.75;;
36221;SDS011;22266;52.340;4.962;2024-03-17T09:04:40;20.25;;;18.50;;
36221;SDS011;22266;52.340;4.962;2024-03-17T09:07:06;16.75;;;15.75;;
36221;SDS011;22266;52.340;4.962;2024-03-17T09:09:32;24.00;;;21.50;;
36221;SDS011;22266;52.340;4.962;2024-03-17T09:11:58;24.75;;;22.25;;
36221;SDS011;22266;52.340;4.962;2024-03-17T09:14:24;21.00;;;21.00;;
36221;SDS011;22266;52.340;4.962;2024-03-17T09:16:50;22.25;;;20.50;;
36221;SDS011;22266;52.340;4.962;2024-03-17T09:19:15;18.75;;;15.00;;
36221;SDS011;22266;52.340;4.962;2024-03-17T09:21:41;21.25;;;19.25;;
36221;SDS011;22266;52.340;4.962;2024-03-17T09:24:07;27.00;;;24.75;;
36221;SDS011;22266;52.340;4.962;2024-03-17T09:26:33;25.75;;;24.00;;
36221;SDS011;22266;52.340;4.962;2024-03-17T09:29:04;27.00;;;24.00;;
36221;SDS011;22266;52.340;4.962;2024-03-17T09:31:30;30.25;;;27.75;;
36221;SDS011;22266;52.340;4.962;2024-03-17T09:33:59;22.50;;;21.25;;
36221;SDS011;22266;52.340;4.962;2024-03-17T09:36:25;25.50;;;21.50;;
36221;SDS011;22266;52.340;4.962;2024-03-17T09:38:51;28.50;;;26.00;;
36221;SDS011;22266;52.340;4.962;2024-03-17T09:41:21;27.00;;;25.00;;
36221;SDS011;22266;52.340;4.962;2024-03-17T09:43:48;22.50;;;20.25;;
36221;SDS011;22266;52.340;4.962;2024-03-17T09:46:14;27.00;;;23.25;;
36221;SDS011;22266;52.340;4.962;2024-03-17T09:48:41;26.00;;;23.25;;
36221;SDS011;22266;52.340;4.962;2024-03-17T09:51:08;27.75;;;27.00;;
36221;SDS011;22266;52.340;4.962;2024-03-17T09:53:51;24.00;;;22.25;;
36221;SDS011;22266;52.340;4.962;2024-03-17T09:56:20;25.75;;;23.25;;
36221;SDS011;22266;52.340;4.962;2024-03-17T09:58:47;23.50;;;20.25;;
36221;SDS011;22266;52.340;4.962;2024-03-17T10:01:13;20.75;;;17.50;;
36221;SDS011;22266;52.340;4.962;2024-03-17T10:03:46;24.25;;;22.25;;
36221;SDS011;22266;52.340;4.962;2024-03-17T10:06:24;22.25;;;20.00;;
36221;SDS011;22266;52.340;4.962;2024-03-17T10:08:53;25.25;;;24.50;;
36221;SDS011;22266;52.340;4.962;2024-03-17T10:11:20;24.75;;;18.25;;
36221;SDS011;22266;52.340;4.962;2024-03-17T10:13:58;23.50;;;21.75;;
36221;SDS011;22266;52.340;4.962;2024-03-17T10:16:25;20.25;;;18.25;;
36221;SDS011;22266;52.340;4.962;2024-03-17T10:21:50;27.00;;;23.25;;
36221;SDS011;22266;52.340;4.962;2024-03-17T10:24:24;27.50;;;22.50;;
36221;SDS011;22266;52.340;4.962;2024-03-17T10:26:51;18.00;;;16.50;;
36221;SDS011;22266;52.340;4.962;2024-03-17T10:29:22;20.00;;;20.00;;
36221;SDS011;22266;52.340;4.962;2024-03-17T10:32:12;21.25;;;19.50;;
36221;SDS011;22266;52.340;4.962;2024-03-17T10:34:44;27.50;;;23.25;;
36221;SDS011;22266;52.340;4.962;2024-03-17T10:37:11;23.00;;;21.50;;
36221;SDS011;22266;52.340;4.962;2024-03-17T10:39:40;19.25;;;19.00;;
36221;SDS011;22266;52.340;4.962;2024-03-17T10:42:07;15.50;;;15.50;;
36221;SDS011;22266;52.340;4.962;2024-03-17T10:44:34;19.25;;;18.25;;
36221;SDS011;22266;52.340;4.962;2024-03-17T10:47:02;21.50;;;21.25;;
36221;SDS011;22266;52.340;4.962;2024-03-17T10:49:31;20.75;;;18.00;;
36221;SDS011;22266;52.340;4.962;2024-03-17T10:51:58;23.00;;;20.00;;
36221;SDS011;22266;52.340;4.962;2024-03-17T10:54:43;21.00;;;16.50;;
36221;SDS011;22266;52.340;4.962;2024-03-17T10:57:22;23.00;;;19.50;;
36221;SDS011;22266;52.340;4.962;2024-03-17T10:59:57;18.25;;;17.50;;
36221;SDS011;22266;52.340;4.962;2024-03-17T11:02:25;18.75;;;17.75;;
36221;SDS011;22266;52.340;4.962;2024-03-17T11:05:02;18.25;;;18.25;;
36221;SDS011;22266;52.340;4.962;2024-03-17T11:07:30;21.00;;;20.50;;
36221;SDS011;22266;52.340;4.962;2024-03-17T11:09:59;20.00;;;19.25;;
36221;SDS011;22266;52.340;4.962;2024-03-17T11:17:46;21.25;;;19.50;;
36221;SDS011;22266;52.340;4.962;2024-03-17T11:20:15;15.25;;;13.75;;
36221;SDS011;22266;52.340;4.962;2024-03-17T11:22:43;20.25;;;18.25;;
36221;SDS011;22266;52.340;4.962;2024-03-17T11:28:02;20.00;;;17.50;;
36221;SDS011;22266;52.340;4.962;2024-03-17T11:38:54;18.50;;;16.00;;
36221;SDS011;22266;52.340;4.962;2024-03-17T11:41:42;13.00;;;13.00;;
36221;SDS011;22266;52.340;4.962;2024-03-17T11:44:15;19.25;;;17.25;;
36221;SDS011;22266;52.340;4.962;2024-03-17T11:46:58;17.75;;;17.75;;
36221;SDS011;22266;52.340;4.962;2024-03-17T11:54:44;20.50;;;15.50;;
36221;SDS011;22266;52.340;4.962;2024-03-17T11:57:12;18.50;;;16.50;;
36221;SDS011;22266;52.340;4.962;2024-03-17T11:59:40;19.25;;;17.25;;
36221;SDS011;22266;52.340;4.962;2024-03-17T12:02:10;19.50;;;18.50;;
36221;SDS011;22266;52.340;4.962;2024-03-17T12:04:43;20.00;;;18.25;;
36221;SDS011;22266;52.340;4.962;2024-03-17T12:07:11;19.75;;;18.25;;
36221;SDS011;22266;52.340;4.962;2024-03-17T12:09:40;22.00;;;20.00;;
36221;SDS011;22266;52.340;4.962;2024-03-17T12:12:11;15.50;;;13.75;;
36221;SDS011;22266;52.340;4.962;2024-03-17T12:14:41;13.75;;;13.75;;
36221;SDS011;22266;52.340;4.962;2024-03-17T12:17:07;21.75;;;20.50;;
36221;SDS011;22266;52.340;4.962;2024-03-17T12:19:35;19.00;;;17.25;;
36221;SDS011;22266;52.340;4.962;2024-03-17T12:22:02;13.25;;;11.50;;
36221;SDS011;22266;52.340;4.962;2024-03-17T12:24:30;20.00;;;16.75;;
36221;SDS011;22266;52.340;4.962;2024-03-17T12:26:58;13.75;;;13.25;;
36221;SDS011;22266;52.340;4.962;2024-03-17T12:29:35;20.25;;;17.00;;
36221;SDS011;22266;52.340;4.962;2024-03-17T12:32:06;19.50;;;18.75;;
36221;SDS011;22266;52.340;4.962;2024-03-17T12:34:38;21.00;;;18.50;;
36221;SDS011;22266;52.340;4.962;2024-03-17T12:37:05;19.75;;;17.75;;
36221;SDS011;22266;52.340;4.962;2024-03-17T12:39:34;18.50;;;16.75;;
36221;SDS011;22266;52.340;4.962;2024-03-17T12:44:33;17.25;;;16.50;;
36221;SDS011;22266;52.340;4.962;2024-03-17T12:47:01;27.50;;;20.00;;
36221;SDS011;22266;52.340;4.962;2024-03-17T12:49:28;22.75;;;17.25;;
36221;SDS011;22266;52.340;4.962;2024-03-17T12:51:55;20.75;;;19.00;;
36221;SDS011;22266;52.340;4.962;2024-03-17T12:54:25;21.00;;;17.50;;
36221;SDS011;22266;52.340;4.962;2024-03-17T12:57:02;19.50;;;17.25;;
36221;SDS011;22266;52.340;4.962;2024-03-17T12:59:51;24.00;;;19.50;;
36221;SDS011;22266;52.340;4.962;2024-03-17T13:02:42;24.00;;;21.25;;
36221;SDS011;22266;52.340;4.962;2024-03-17T13:07:41;26.00;;;22.25;;
36221;SDS011;22266;52.340;4.962;2024-03-17T13:10:07;21.25;;;19.75;;
36221;SDS011;22266;52.340;4.962;2024-03-17T13:12:33;26.25;;;21.75;;
36221;SDS011;22266;52.340;4.962;2024-03-17T13:15:00;22.00;;;21.50;;
36221;SDS011;22266;52.340;4.962;2024-03-17T13:17:26;20.50;;;18.25;;
36221;SDS011;22266;52.340;4.962;2024-03-17T13:19:54;15.75;;;14.50;;
36221;SDS011;22266;52.340;4.962;2024-03-17T13:22:20;24.75;;;18.00;;
36221;SDS011;22266;52.340;4.962;2024-03-17T13:24:45;19.25;;;18.00;;
36221;SDS011;22266;52.340;4.962;2024-03-17T13:27:12;22.00;;;21.75;;
36221;SDS011;22266;52.340;4.962;2024-03-17T13:29:39;20.50;;;19.25;;
36221;SDS011;22266;52.340;4.962;2024-03-17T13:32:09;17.25;;;16.25;;
36221;SDS011;22266;52.340;4.962;2024-03-17T13:34:35;20.75;;;20.50;;
36221;SDS011;22266;52.340;4.962;2024-03-17T13:37:00;25.00;;;19.75;;
36221;SDS011;22266;52.340;4.962;2024-03-17T13:39:29;17.75;;;17.25;;
36221;SDS011;22266;52.340;4.962;2024-03-17T13:41:57;16.75;;;16.25;;
36221;SDS011;22266;52.340;4.962;2024-03-17T13:44:29;17.25;;;17.25;;
36221;SDS011;22266;52.340;4.962;2024-03-17T13:46:55;20.00;;;19.00;;
36221;SDS011;22266;52.340;4.962;2024-03-17T13:49:20;20.75;;;20.00;;
36221;SDS011;22266;52.340;4.962;2024-03-17T13:51:46;20.50;;;18.00;;
36221;SDS011;22266;52.340;4.962;2024-03-17T13:54:11;23.00;;;23.00;;
36221;SDS011;22266;52.340;4.962;2024-03-17T13:56:37;17.75;;;16.75;;
36221;SDS011;22266;52.340;4.962;2024-03-17T13:59:03;21.50;;;19.50;;
36221;SDS011;22266;52.340;4.962;2024-03-17T14:01:29;18.00;;;17.50;;
36221;SDS011;22266;52.340;4.962;2024-03-17T14:03:55;22.00;;;19.75;;
36221;SDS011;22266;52.340;4.962;2024-03-17T14:06:20;19.00;;;18.00;;
36221;SDS011;22266;52.340;4.962;2024-03-17T14:08:46;17.50;;;17.50;;
36221;SDS011;22266;52.340;4.962;2024-03-17T14:11:12;17.25;;;15.00;;
36221;SDS011;22266;52.340;4.962;2024-03-17T14:13:38;20.00;;;20.00;;
36221;SDS011;22266;52.340;4.962;2024-03-17T14:16:04;22.00;;;17.00;;
36221;SDS011;22266;52.340;4.962;2024-03-17T14:18:33;18.25;;;15.50;;
36221;SDS011;22266;52.340;4.962;2024-03-17T14:20:58;24.75;;;21.00;;
36221;SDS011;22266;52.340;4.962;2024-03-17T14:23:24;19.50;;;17.75;;
36221;SDS011;22266;52.340;4.962;2024-03-17T14:25:50;15.25;;;15.25;;
36221;SDS011;22266;52.340;4.962;2024-03-17T14:28:16;20.00;;;16.50;;
36221;SDS011;22266;52.340;4.962;2024-03-17T14:30:41;19.75;;;17.00;;
36221;SDS011;22266;52.340;4.962;2024-03-17T14:33:07;21.00;;;18.25;;
36221;SDS011;22266;52.340;4.962;2024-03-17T14:35:33;19.75;;;19.75;;
36221;SDS011;22266;52.340;4.962;2024-03-17T14:37:58;21.75;;;17.50;;
36221;SDS011;22266;52.340;4.962;2024-03-17T14:40:24;19.50;;;18.75;;
36221;SDS011;22266;52.340;4.962;2024-03-17T14:42:53;18.25;;;16.00;;
36221;SDS011;22266;52.340;4.962;2024-03-17T14:45:20;18.50;;;16.25;;
36221;SDS011;22266;52.340;4.962;2024-03-17T14:47:49;15.75;;;15.75;;
36221;SDS011;22266;52.340;4.962;2024-03-17T14:50:15;18.75;;;17.75;;
36221;SDS011;22266;52.340;4.962;2024-03-17T14:52:41;22.50;;;21.25;;
36221;SDS011;22266;52.340;4.962;2024-03-17T14:55:08;22.75;;;19.00;;
36221;SDS011;22266;52.340;4.962;2024-03-17T14:57:38;17.00;;;16.75;;
36221;SDS011;22266;52.340;4.962;2024-03-17T15:00:08;20.25;;;19.25;;